createdAt,value
2018-02-08T00:01:10.386Z,101937.44
2018-02-08T00:04:12.299Z,101936.51
2018-02-08T00:07:14.279Z,101943.57
2018-02-08T00:10:16.283Z,101937.01
2018-02-08T00:13:18.179Z,101929.27
2018-02-08T00:16:20.103Z,101933.45
2018-02-08T00:19:22.070Z,101934.00
2018-02-08T00:22:23.971Z,101937.98
2018-02-08T00:25:25.874Z,101941.36
2018-02-08T00:28:27.763Z,101938.74
2018-02-08T00:31:29.646Z,101936.08
2018-02-08T00:34:31.543Z,101936.01
2018-02-08T00:37:33.564Z,101940.77
2018-02-08T00:40:35.442Z,101940.60
2018-02-08T00:43:37.443Z,101943.79
2018-02-08T00:46:39.339Z,101945.33
2018-02-08T00:49:41.328Z,101952.63
2018-02-08T00:52:43.226Z,101954.08
2018-02-08T00:55:45.135Z,101956.49
2018-02-08T00:58:47.111Z,101962.58
2018-02-08T01:01:49.023Z,101968.59
2018-02-08T01:04:51.015Z,101969.53
2018-02-08T01:07:53.011Z,101974.67
2018-02-08T01:10:55.017Z,101974.45
2018-02-08T01:13:57.011Z,101991.99
2018-02-08T01:16:58.995Z,101989.81
2018-02-08T01:20:00.901Z,101993.83
2018-02-08T01:23:02.808Z,101993.39
2018-02-08T01:26:04.783Z,101992.72
2018-02-08T01:29:06.685Z,101992.01
2018-02-08T01:32:08.943Z,101988.44
2018-02-08T01:35:11.014Z,101984.82
2018-02-08T01:38:12.976Z,101984.04
2018-02-08T01:41:14.914Z,101989.55
2018-02-08T01:44:16.811Z,101987.83
2018-02-08T01:47:18.708Z,101989.69
2018-02-08T01:50:20.603Z,101989.02
2018-02-08T01:53:22.506Z,101989.25
2018-02-08T01:56:24.499Z,101990.01
2018-02-08T01:59:26.394Z,101985.87
2018-02-08T02:02:28.528Z,101980.68
2018-02-08T02:05:30.496Z,101982.35
2018-02-08T02:08:32.491Z,101978.96
2018-02-08T02:11:34.375Z,101976.56
2018-02-08T02:14:36.271Z,101980.09
2018-02-08T02:17:38.177Z,101977.22
2018-02-08T02:20:40.067Z,101975.21
2018-02-08T02:23:42.058Z,101975.45
2018-02-08T02:26:43.967Z,101978.19
2018-02-08T02:29:45.867Z,101979.47
2018-02-08T02:32:47.768Z,101982.03
2018-02-08T02:35:49.670Z,101984.06
2018-02-08T02:38:51.555Z,101979.68
2018-02-08T02:41:53.443Z,101976.63
2018-02-08T02:44:55.355Z,101981.03
2018-02-08T02:47:57.270Z,101977.75
2018-02-08T02:50:59.172Z,101977.96
2018-02-08T02:54:01.231Z,101983.10
2018-02-08T02:57:03.206Z,101977.09
2018-02-08T03:00:05.124Z,101984.52
2018-02-08T03:03:07.015Z,101982.65
2018-02-08T03:06:08.935Z,101980.15
2018-02-08T03:09:10.904Z,101979.67
2018-02-08T03:12:12.859Z,101981.86
2018-02-08T03:15:14.804Z,101978.21
2018-02-08T03:18:16.791Z,101978.52
2018-02-08T03:21:18.770Z,101981.21
2018-02-08T03:24:20.679Z,101980.71
2018-02-08T03:27:22.586Z,101986.88
2018-02-08T03:30:24.523Z,101983.38
2018-02-08T03:33:26.486Z,101985.35
2018-02-08T03:36:28.392Z,101989.91
2018-02-08T03:39:30.527Z,101994.73
2018-02-08T03:42:32.437Z,101994.32
2018-02-08T03:45:34.340Z,101998.10
2018-02-08T03:48:36.235Z,102003.56
2018-02-08T03:51:38.264Z,102005.48
2018-02-08T03:54:40.234Z,102001.84
2018-02-08T03:57:42.144Z,102013.41
2018-02-08T04:00:44.114Z,102015.80
2018-02-08T04:03:46.011Z,102019.94
2018-02-08T04:06:47.894Z,102017.99
2018-02-08T04:09:49.798Z,102025.37
2018-02-08T04:12:51.696Z,102025.86
2018-02-08T04:15:53.594Z,102029.97
2018-02-08T04:18:55.718Z,102032.76
2018-02-08T04:21:57.692Z,102041.40
2018-02-08T04:24:59.574Z,102040.83
2018-02-08T04:28:01.479Z,102040.15
2018-02-08T04:31:03.378Z,102043.74
2018-02-08T04:34:05.373Z,102046.73
2018-02-08T04:37:07.262Z,102046.08
2018-02-08T04:40:09.270Z,102050.69
2018-02-08T04:43:11.146Z,102050.97
2018-02-08T04:46:13.066Z,102050.60
2018-02-08T04:49:14.939Z,102052.01
2018-02-08T04:52:16.847Z,102057.21
2018-02-08T04:55:18.759Z,102063.10
2018-02-08T04:58:20.740Z,102066.06
2018-02-08T05:01:22.742Z,102069.92
2018-02-08T05:04:24.643Z,102070.62
2018-02-08T05:07:26.534Z,102071.29
2018-02-08T05:10:28.427Z,102072.23
2018-02-08T05:13:30.427Z,102068.61
2018-02-08T05:16:32.423Z,102068.09
2018-02-08T05:19:34.420Z,102077.07
2018-02-08T05:22:36.314Z,102079.53
2018-02-08T05:25:38.227Z,102084.43
2018-02-08T05:28:40.234Z,102088.33
2018-02-08T05:31:42.163Z,102091.70
2018-02-08T05:34:44.123Z,102098.12
2018-02-08T05:37:46.023Z,102090.49
2018-02-08T05:40:48.034Z,102094.12
2018-02-08T05:43:49.921Z,102095.76
2018-02-08T05:46:51.818Z,102098.40
2018-02-08T05:49:53.701Z,102102.96
2018-02-08T05:52:55.660Z,102105.70
2018-02-08T05:55:57.519Z,102104.81
2018-02-08T05:58:59.419Z,102105.52
2018-02-08T06:02:01.408Z,102109.91
2018-02-08T06:05:03.312Z,102118.08
2018-02-08T06:08:05.207Z,102119.79
2018-02-08T06:11:07.103Z,102120.18
2018-02-08T06:14:09.011Z,102115.45
2018-02-08T06:17:10.996Z,102119.10
2018-02-08T06:20:12.891Z,102116.23
2018-02-08T06:23:14.787Z,102114.48
2018-02-08T06:26:16.720Z,102120.09
2018-02-08T06:29:18.708Z,102123.16
2018-02-08T06:32:20.611Z,102123.19
2018-02-08T06:35:22.515Z,102129.49
2018-02-08T06:38:24.390Z,102132.77
2018-02-08T06:41:26.279Z,102134.48
2018-02-08T06:44:28.154Z,102138.81
2018-02-08T06:47:30.039Z,102139.26
2018-02-08T06:50:31.915Z,102136.14
2018-02-08T06:53:33.804Z,102144.94
2018-02-08T06:56:35.695Z,102146.31
2018-02-08T06:59:37.567Z,102145.55
2018-02-08T07:02:39.448Z,102146.92
2018-02-08T07:05:41.382Z,102152.77
2018-02-08T07:08:43.267Z,102153.03
2018-02-08T07:11:45.154Z,102153.89
2018-02-08T07:14:47.023Z,102160.03
2018-02-08T07:17:48.899Z,102161.56
2018-02-08T07:20:50.804Z,102163.28
2018-02-08T07:23:52.690Z,102171.29
2018-02-08T07:26:54.583Z,102174.65
2018-02-08T07:29:56.455Z,102174.81
2018-02-08T07:32:58.349Z,102174.46
2018-02-08T07:36:00.227Z,102182.47
2018-02-08T07:39:02.114Z,102182.01
2018-02-08T07:42:03.996Z,102183.43
2018-02-08T07:45:05.906Z,102185.18
2018-02-08T07:48:07.787Z,102190.25
2018-02-08T07:51:09.665Z,102189.67
2018-02-08T07:54:11.551Z,102191.43
2018-02-08T07:57:13.435Z,102191.82
2018-02-08T08:00:15.322Z,102189.50
2018-02-08T08:03:17.210Z,102195.59
2018-02-08T08:06:19.091Z,102196.14
2018-02-08T08:09:20.972Z,102195.80
2018-02-08T08:12:22.860Z,102199.26
2018-02-08T08:15:24.762Z,102197.55
2018-02-08T08:18:26.635Z,102199.11
2018-02-08T08:21:28.519Z,102197.71
2018-02-08T08:24:30.399Z,102200.64
2018-02-08T08:27:32.279Z,102197.11
2018-02-08T08:30:34.152Z,102200.62
2018-02-08T08:33:36.043Z,102197.31
2018-02-08T08:36:37.934Z,102201.55
2018-02-08T08:39:39.815Z,102203.87
2018-02-08T08:42:41.704Z,102200.94
2018-02-08T08:45:43.570Z,102195.43
2018-02-08T08:48:45.458Z,102200.65
2018-02-08T08:51:47.363Z,102198.95
2018-02-08T08:54:49.258Z,102205.35
2018-02-08T08:57:51.124Z,102209.48
2018-02-08T09:00:53.005Z,102216.50
2018-02-08T09:03:54.894Z,102207.99
2018-02-08T09:06:56.767Z,102216.02
2018-02-08T09:09:58.650Z,102224.65
2018-02-08T09:13:00.535Z,102229.48
2018-02-08T09:16:02.411Z,102233.46
2018-02-08T09:19:04.309Z,102234.57
2018-02-08T09:22:06.207Z,102234.97
2018-02-08T09:25:08.081Z,102240.84
2018-02-08T09:28:10.227Z,102238.76
2018-02-08T09:31:12.106Z,102241.61
2018-02-08T09:34:13.984Z,102245.11
2018-02-08T09:37:15.871Z,102245.63
2018-02-08T09:40:17.759Z,102247.86
2018-02-08T09:43:19.631Z,102250.10
2018-02-08T09:46:21.511Z,102250.73
2018-02-08T09:49:23.404Z,102253.15
2018-02-08T09:52:25.263Z,102256.36
2018-02-08T09:55:27.151Z,102255.32
2018-02-08T09:58:29.020Z,102259.01
2018-02-08T10:01:30.904Z,102258.57
2018-02-08T10:04:32.792Z,102262.49
2018-02-08T10:07:34.674Z,102263.54
2018-02-08T10:10:36.551Z,102267.48
2018-02-08T10:13:38.439Z,102270.39
2018-02-08T10:16:40.321Z,102267.00
2018-02-08T10:19:42.198Z,102271.02
2018-02-08T10:22:44.084Z,102268.64
2018-02-08T10:25:45.963Z,102268.73
2018-02-08T10:28:47.899Z,102265.46
2018-02-08T10:31:49.819Z,102268.37
2018-02-08T10:34:51.699Z,102263.20
2018-02-08T10:37:53.582Z,102255.46
2018-02-08T10:40:55.504Z,102260.76
2018-02-08T10:43:57.390Z,102257.85
2018-02-08T10:46:59.298Z,102256.59
2018-02-08T10:50:01.240Z,102260.49
2018-02-08T10:53:03.067Z,102260.90
2018-02-08T10:56:04.943Z,102263.38
2018-02-08T10:59:06.843Z,102256.50
2018-02-08T11:02:08.727Z,102251.76
2018-02-08T11:05:10.619Z,102250.30
2018-02-08T11:08:12.510Z,102247.49
2018-02-08T11:11:14.411Z,102247.45
2018-02-08T11:14:16.313Z,102245.48
2018-02-08T11:17:18.206Z,102245.85
2018-02-08T11:20:20.151Z,102246.20
2018-02-08T11:23:22.031Z,102246.87
2018-02-08T11:26:23.911Z,102248.96
2018-02-08T11:29:25.787Z,102247.15
2018-02-08T11:32:27.731Z,102249.86
2018-02-08T11:35:29.612Z,102243.91
2018-02-08T11:38:31.495Z,102240.41
2018-02-08T11:41:33.383Z,102240.19
2018-02-08T11:44:35.264Z,102235.61
2018-02-08T11:47:37.143Z,102237.84
2018-02-08T11:50:39.055Z,102233.76
2018-02-08T11:53:40.938Z,102229.36
2018-02-08T11:56:42.827Z,102226.41
2018-02-08T11:59:44.710Z,102227.91
2018-02-08T12:02:46.588Z,102227.69
2018-02-08T12:05:48.470Z,102235.17
2018-02-08T12:08:50.350Z,102230.01
2018-02-08T12:11:52.231Z,102232.46
2018-02-08T12:14:54.119Z,102231.02
2018-02-08T12:17:55.990Z,102227.71
2018-02-08T12:20:57.887Z,102225.09
2018-02-08T12:23:59.762Z,102221.85
2018-02-08T12:27:01.633Z,102218.89
2018-02-08T12:30:03.518Z,102221.97
2018-02-08T12:33:05.395Z,102218.92
2018-02-08T12:36:07.276Z,102216.05
2018-02-08T12:39:09.171Z,102214.96
2018-02-08T12:42:11.106Z,102212.18
2018-02-08T12:45:12.959Z,102212.99
2018-02-08T12:48:14.843Z,102206.07
2018-02-08T12:51:16.730Z,102206.15
2018-02-08T12:54:18.605Z,102194.53
2018-02-08T12:57:20.478Z,102194.58
2018-02-08T13:00:22.403Z,102191.30
2018-02-08T13:03:24.278Z,102190.52
2018-02-08T13:06:26.155Z,102192.33
2018-02-08T13:09:28.039Z,102186.65
2018-02-08T13:12:29.935Z,102190.35
2018-02-08T13:15:31.814Z,102188.48
2018-02-08T13:18:33.715Z,102185.71
2018-02-08T13:21:35.591Z,102179.89
2018-02-08T13:24:37.715Z,102175.82
2018-02-08T13:27:39.595Z,102172.78
2018-02-08T13:30:41.478Z,102173.61
2018-02-08T13:33:43.358Z,102173.86
2018-02-08T13:36:45.276Z,102173.86
2018-02-08T13:39:47.190Z,102174.53
2018-02-08T13:42:49.217Z,102170.92
2018-02-08T13:45:51.125Z,102173.80
2018-02-08T13:48:53.043Z,102173.70
2018-02-08T13:51:55.111Z,102174.63
2018-02-08T13:54:57.010Z,102170.52
2018-02-08T13:57:59.035Z,102171.74
2018-02-08T14:01:00.930Z,102176.09
2018-02-08T14:04:02.808Z,102173.27
2018-02-08T14:07:04.678Z,102170.58
2018-02-08T14:10:06.579Z,102167.33
2018-02-08T14:13:08.502Z,102173.38
2018-02-08T14:16:10.355Z,102174.67
2018-02-08T14:19:12.249Z,102176.73
2018-02-08T14:22:14.126Z,102177.08
2018-02-08T14:25:15.999Z,102173.10
2018-02-08T14:28:17.891Z,102179.04
2018-02-08T14:31:19.835Z,102178.80
2018-02-08T14:34:21.731Z,102182.35
2018-02-08T14:37:23.627Z,102184.94
2018-02-08T14:40:25.514Z,102176.77
2018-02-08T14:43:27.390Z,102178.12
2018-02-08T14:46:29.270Z,102180.55
2018-02-08T14:49:31.164Z,102177.78
2018-02-08T14:52:33.040Z,102174.53
2018-02-08T14:55:34.923Z,102178.30
2018-02-08T14:58:36.803Z,102177.78
2018-02-08T15:01:38.699Z,102174.63
2018-02-08T15:04:40.583Z,102179.49
2018-02-08T15:07:42.462Z,102179.68
2018-02-08T15:10:44.370Z,102171.94
2018-02-08T15:13:46.252Z,102168.80
2018-02-08T15:16:48.163Z,102175.52
2018-02-08T15:19:50.051Z,102170.91
2018-02-08T15:22:51.960Z,102174.70
2018-02-08T15:25:53.846Z,102172.90
2018-02-08T15:28:55.731Z,102173.97
2018-02-08T15:31:57.647Z,102171.96
2018-02-08T15:34:59.546Z,102178.08
2018-02-08T15:38:01.431Z,102178.89
2018-02-08T15:41:03.323Z,102181.14
2018-02-08T15:44:05.207Z,102182.17
2018-02-08T15:47:07.095Z,102180.09
2018-02-08T15:50:08.975Z,102184.75
2018-02-08T15:53:10.879Z,102187.69
2018-02-08T15:56:12.759Z,102189.71
2018-02-08T15:59:14.655Z,102191.44
2018-02-08T16:02:16.534Z,102194.58
2018-02-08T16:05:18.815Z,102196.89
2018-02-08T16:08:20.698Z,102203.05
2018-02-08T16:11:22.571Z,102198.94
2018-02-08T16:14:24.468Z,102201.31
2018-02-08T16:17:26.343Z,102203.46
2018-02-08T16:20:28.240Z,102200.62
2018-02-08T16:23:30.126Z,102207.69
2018-02-08T16:26:32.032Z,102208.51
2018-02-08T16:29:33.927Z,102210.79
2018-02-08T16:32:35.798Z,102212.62
2018-02-08T16:35:37.724Z,102216.76
2018-02-08T16:38:39.566Z,102216.84
2018-02-08T16:41:41.452Z,102217.94
2018-02-08T16:44:43.355Z,102221.10
2018-02-08T16:47:45.254Z,102220.98
2018-02-08T16:50:47.140Z,102227.60
2018-02-08T16:53:49.023Z,102222.21
2018-02-08T16:56:50.934Z,102223.39
2018-02-08T16:59:52.782Z,102226.98
2018-02-08T17:02:54.663Z,102228.83
2018-02-08T17:05:56.552Z,102228.31
2018-02-08T17:08:58.435Z,102231.07
2018-02-08T17:12:00.335Z,102233.77
2018-02-08T17:15:02.330Z,102240.94
2018-02-08T17:18:04.319Z,102236.10
2018-02-08T17:21:06.238Z,102235.53
2018-02-08T17:24:08.183Z,102233.28
2018-02-08T17:27:10.054Z,102234.20
2018-02-08T17:30:11.951Z,102231.57
2018-02-08T17:33:13.833Z,102235.04
2018-02-08T17:36:15.725Z,102233.59
2018-02-08T17:39:17.611Z,102240.32
2018-02-08T17:42:19.531Z,102238.31
2018-02-08T17:45:21.423Z,102239.67
2018-02-08T17:48:23.303Z,102238.69
2018-02-08T17:51:25.190Z,102237.39
2018-02-08T17:54:27.080Z,102238.56
2018-02-08T17:57:28.983Z,102236.66
2018-02-08T18:00:30.995Z,102233.79
2018-02-08T18:03:32.971Z,102232.37
2018-02-08T18:06:34.963Z,102239.25
2018-02-08T18:09:36.959Z,102236.23
2018-02-08T18:12:38.896Z,102235.94
2018-02-08T18:15:40.775Z,102237.90
2018-02-08T18:18:42.660Z,102242.06
2018-02-08T18:21:44.559Z,102240.98
2018-02-08T18:24:46.452Z,102239.74
2018-02-08T18:27:48.343Z,102235.85
2018-02-08T18:30:50.231Z,102238.54
2018-02-08T18:33:52.111Z,102237.11
2018-02-08T18:36:53.995Z,102233.30
2018-02-08T18:39:55.881Z,102227.56
2018-02-08T18:42:58.048Z,102228.76
2018-02-08T18:45:59.958Z,102229.59
2018-02-08T18:49:01.843Z,102236.75
2018-02-08T18:52:03.723Z,102232.26
2018-02-08T18:55:05.611Z,102235.99
2018-02-08T18:58:07.489Z,102235.74
2018-02-08T19:01:09.372Z,102238.27
2018-02-08T19:04:11.280Z,102237.66
2018-02-08T19:07:13.167Z,102237.42
2018-02-08T19:10:15.050Z,102236.72
2018-02-08T19:13:16.934Z,102238.64
2018-02-08T19:16:18.836Z,102241.58
2018-02-08T19:19:21.607Z,102238.46
2018-02-08T19:22:23.483Z,102238.15
2018-02-08T19:25:25.367Z,102238.13
2018-02-08T19:28:27.257Z,102237.09
2018-02-08T19:31:29.151Z,102240.26
2018-02-08T19:34:31.067Z,102239.39
2018-02-08T19:37:32.968Z,102239.52
2018-02-08T19:40:35.384Z,102238.18
2018-02-08T19:43:37.270Z,102237.37
2018-02-08T19:46:39.171Z,102233.11
2018-02-08T19:49:41.376Z,102232.42
2018-02-08T19:52:43.255Z,102225.56
2018-02-08T19:55:45.134Z,102232.35
2018-02-08T20:01:48.611Z,102224.13
2018-02-08T20:04:50.504Z,102223.65
2018-02-08T20:07:52.413Z,102216.83
2018-02-08T20:10:54.307Z,102215.37
2018-02-08T20:13:56.222Z,102218.31
2018-02-08T20:16:58.090Z,102221.25
2018-02-08T20:19:59.971Z,102221.14
2018-02-08T20:23:01.890Z,102221.20
2018-02-08T20:26:03.771Z,102222.63
2018-02-08T20:29:05.740Z,102221.00
2018-02-08T20:32:07.619Z,102221.75
2018-02-08T20:35:09.487Z,102226.02
2018-02-08T20:38:11.399Z,102225.38
2018-02-08T20:41:13.299Z,102227.70
2018-02-08T20:44:15.187Z,102226.79
2018-02-08T20:47:17.147Z,102224.68
2018-02-08T20:50:19.093Z,102222.86
2018-02-08T20:53:20.961Z,102220.33
2018-02-08T20:56:22.835Z,102214.20
2018-02-08T20:59:24.718Z,102215.11
2018-02-08T21:02:26.600Z,102212.73
2018-02-08T21:05:28.487Z,102209.76
2018-02-08T21:08:30.396Z,102212.26
2018-02-08T21:11:32.316Z,102211.77
2018-02-08T21:14:34.255Z,102213.04
2018-02-08T21:17:36.142Z,102218.28
2018-02-08T21:20:38.051Z,102209.02
2018-02-08T21:23:39.939Z,102208.04
2018-02-08T21:26:42.883Z,102210.62
2018-02-08T21:29:44.878Z,102209.97
2018-02-08T21:32:46.869Z,102213.59
2018-02-08T21:35:48.862Z,102209.34
2018-02-08T21:38:50.763Z,102200.10
2018-02-08T21:41:52.770Z,102197.49
2018-02-08T21:44:54.751Z,102196.19
2018-02-08T21:47:56.679Z,102199.66
2018-02-08T21:50:58.684Z,102199.15
2018-02-08T21:54:00.670Z,102193.81
2018-02-08T21:57:02.646Z,102191.51
2018-02-08T22:00:04.659Z,102188.18
2018-02-08T22:03:06.635Z,102188.44
2018-02-08T22:06:08.523Z,102185.65
2018-02-08T22:09:10.428Z,102191.35
2018-02-08T22:12:12.330Z,102186.05
2018-02-08T22:15:14.223Z,102188.07
2018-02-08T22:18:16.222Z,102180.26
2018-02-08T22:21:18.128Z,102183.16
2018-02-08T22:24:20.094Z,102182.86
2018-02-08T22:27:22.007Z,102184.53
2018-02-08T22:30:23.914Z,102182.20
2018-02-08T22:33:25.822Z,102182.36
2018-02-08T22:36:27.883Z,102186.82
2018-02-08T22:39:29.822Z,102182.80
2018-02-08T22:42:31.719Z,102182.37
2018-02-08T22:45:33.711Z,102176.54
2018-02-08T22:48:35.607Z,102171.08
2018-02-08T22:51:37.503Z,102178.22
2018-02-08T22:54:39.499Z,102174.98
2018-02-08T22:57:41.423Z,102173.33
2018-02-08T23:00:43.399Z,102174.58
2018-02-08T23:03:45.542Z,102170.49
2018-02-08T23:06:47.502Z,102169.19
2018-02-08T23:09:49.494Z,102176.00
2018-02-08T23:12:51.495Z,102181.99
2018-02-08T23:15:53.490Z,102182.44
2018-02-08T23:18:55.407Z,102181.44
2018-02-08T23:21:57.382Z,102182.79
2018-02-08T23:24:59.282Z,102183.01
2018-02-08T23:28:01.163Z,102181.15
2018-02-08T23:31:03.068Z,102181.43
2018-02-08T23:34:04.966Z,102181.46
2018-02-08T23:37:06.972Z,102181.34
2018-02-08T23:40:08.958Z,102173.08
2018-02-08T23:43:10.878Z,102180.07
2018-02-08T23:46:12.846Z,102178.17
2018-02-08T23:49:15.158Z,102180.01
2018-02-08T23:52:17.154Z,102182.89
2018-02-08T23:55:19.390Z,102179.26
2018-02-08T23:58:21.363Z,102179.93
